SBOSBO DXB / OMDB
Speedbird OnlineSpeedbird Online DXB / OMDB

Dubai International Airport
11:03 33.1°C

Location Dubai, United Arab Emirates
Latitude: 25.2527999878
Longitude: 55.3643989563
Web Airport Website | Wikipedia
Altitude 19 Meter / 62 Feet
Distance 5,459 KM / 3,392 Miles
from London.
Time Zone UTC +4 hours (Asia/Dubai)
Codes IATA: DXB
ICAO: OMDB
Currency £1 equals AED 4.16
Runways
RunwayLength (m)Surface
12L4351Asphalt
12R4447Asphalt
30L4447Asphalt
30R4351Asphalt
Radio
TypeDescriptionFrequency
ARRARR124.9
ATISATIS131.7
DEPDEP124.45
GNDGND118.35
TWRTWR118.75
Live ATC
METAR OMDB 060600Z 21004KT 170V280 7000 NSC 33/23 Q1008 NOSIG
TAF TAF OMDB 060500Z 0606/0712 32012KT 7000 NSC BECMG 0616/0618 08005KT PROB30 0700/0705 4000 HZ PROB30 0708/0712 34013KT BECMG 0709/0711 09015KT
Weather As Of 06 Oct 2022 10:58
Description Clear sky
Wind 9 km/h from South-West (210°)
Cloud Cover 0%
Precipitation Rain: none, Snow: none
Sunrise 06:12
Sunset 18:00
Lounges British Airways Lounge (Open), Terminal 1
Marhaba Lounge, Terminal 1
Dubai International Hotel (DIH) - Ahlan Business Class Lounge TEMPORARILY CLOSED, Terminal 1
Marhaba Lounge, Terminal 3
The Gallery Lounge , Terminal 3
The Gallery & Cadiz Lounge, Terminal 3
Emirates First Lounge, Terminal 3
Emirates Business Lounge, Terminal 3
Rotations During the last 90 days there were
143 flights from LHR
127 flights to LHR


© 2017-2022 Speedbird Online